Time;durP1;ratioP1;P1;durP2;ratioP2;P2;SDS_P1;SDS_P2;PMS_P1;PMS_P2;Temp;Humidity;BMP_temperature;BMP_pressure;BME280_temperature;BME280_humidity;BME280_pressure;Samples;Min_cycle;Max_cycle;Signal;HPM_P1;HPM_P2
2023/11/12 00:02:14;;;;;;;15.75;5.22;;;;;;;3.07;75.63;99013.81;4955239;28;20093;-45
2023/11/12 00:04:42;;;;;;;12.05;5.82;;;;;;;3.07;76.25;99011.25;4950353;28;20054;-41
2023/11/12 00:07:09;;;;;;;15.02;5.78;;;;;;;3.06;75.72;99007.00;4959148;28;20731;-44
2023/11/12 00:09:36;;;;;;;12.45;7.20;;;;;;;3.06;75.84;99012.09;4956840;28;20071;-44
2023/11/12 00:12:03;;;;;;;18.35;6.22;;;;;;;3.03;75.75;98999.28;4955659;28;20050;-45
2023/11/12 00:14:30;;;;;;;18.90;6.85;;;;;;;3.04;76.23;99000.16;4958248;28;20066;-42
2023/11/12 00:16:57;;;;;;;14.95;6.15;;;;;;;3.03;76.45;98999.28;4958263;28;20043;-42
2023/11/12 00:19:23;;;;;;;29.63;7.70;;;;;;;3.02;76.29;99012.03;4952392;28;20085;-48
2023/11/12 00:21:50;;;;;;;33.90;8.60;;;;;;;3.00;76.09;99014.59;4952420;28;20134;-44
2023/11/12 00:24:17;;;;;;;15.30;6.35;;;;;;;2.98;76.80;99016.28;4952474;28;20055;-47
2023/11/12 00:26:44;;;;;;;16.77;6.93;;;;;;;2.94;76.15;99012.81;4959280;28;20123;-48
2023/11/12 00:29:11;;;;;;;17.40;8.38;;;;;;;2.93;76.32;99012.78;4962590;28;20051;-42
2023/11/12 00:31:38;;;;;;;19.73;7.15;;;;;;;2.90;77.42;99008.50;4969502;28;20058;-46
2023/11/12 00:34:05;;;;;;;20.75;7.78;;;;;;;2.90;76.69;99005.09;4955703;28;20043;-45
2023/11/12 00:36:32;;;;;;;16.75;6.93;;;;;;;2.87;76.88;99007.63;4953644;28;20055;-42
2023/11/12 00:38:59;;;;;;;23.00;6.97;;;;;;;2.88;76.56;99011.88;4952274;28;20059;-50
2023/11/12 00:41:25;;;;;;;20.48;7.47;;;;;;;2.87;77.04;98999.94;4951044;28;20143;-45
2023/11/12 00:43:56;;;;;;;13.40;5.85;;;;;;;2.84;77.48;98998.22;4956118;28;20058;-45
2023/11/12 00:46:23;;;;;;;24.15;7.65;;;;;;;2.83;76.80;99007.59;4954019;28;20050;-47
2023/11/12 00:48:50;;;;;;;23.65;8.32;;;;;;;2.81;76.99;99001.56;4952471;28;20043;-42
2023/11/12 00:51:17;;;;;;;18.55;6.43;;;;;;;2.80;77.59;99001.56;4955673;28;20055;-43
2023/11/12 00:53:45;;;;;;;21.75;6.72;;;;;;;2.81;76.87;98999.00;4957605;28;20055;-43
2023/11/12 00:56:13;;;;;;;19.95;7.70;;;;;;;2.78;76.79;98999.00;4953076;28;20047;-42
2023/11/12 00:58:40;;;;;;;25.08;7.28;;;;;;;2.76;77.18;98990.44;4960063;28;20098;-48
2023/11/12 01:01:07;;;;;;;21.38;8.07;;;;;;;2.75;78.11;98998.97;4966071;28;20042;-48
2023/11/12 01:03:34;;;;;;;18.90;7.90;;;;;;;2.75;77.48;98992.97;4967200;28;20137;-46
2023/11/12 01:06:02;;;;;;;16.40;6.28;;;;;;;2.76;77.78;98990.44;4960003;28;20066;-47
2023/11/12 01:08:30;;;;;;;17.20;6.55;;;;;;;2.77;77.10;98981.91;4964666;28;20086;-49
2023/11/12 01:10:57;;;;;;;14.50;5.88;;;;;;;2.78;78.03;98977.69;4962409;28;20054;-47
2023/11/12 01:13:24;;;;;;;18.55;6.78;;;;;;;2.79;77.89;98974.28;4970342;28;20057;-42
2023/11/12 01:15:52;;;;;;;19.60;6.13;;;;;;;2.78;77.90;98972.56;4967246;28;20136;-45
2023/11/12 01:18:20;;;;;;;53.75;7.07;;;;;;;2.78;76.91;98978.53;4957124;28;20154;-47
2023/11/12 01:20:48;;;;;;;57.40;5.35;;;;;;;2.75;77.07;98968.28;4958606;28;20453;-46
2023/11/12 01:23:14;;;;;;;67.72;7.50;;;;;;;2.75;77.20;98969.97;4964994;28;20523;-45
2023/11/12 01:25:41;;;;;;;55.33;6.78;;;;;;;2.74;77.46;98966.56;4966865;28;20038;-48
2023/11/12 01:28:10;;;;;;;108.72;7.97;;;;;;;2.72;77.66;98970.78;4970109;28;20050;-46
2023/11/12 01:30:37;;;;;;;86.18;7.93;;;;;;;2.71;76.60;98966.53;4964590;28;20158;-45
2023/11/12 01:33:04;;;;;;;114.60;8.93;;;;;;;2.69;77.65;98968.19;4970069;28;20058;-43
2023/11/12 01:35:32;;;;;;;105.68;8.25;;;;;;;2.67;77.59;98964.78;4968397;28;20077;-42
2023/11/12 01:37:59;;;;;;;116.18;9.10;;;;;;;2.66;77.49;98957.91;4961855;28;20449;-45
2023/11/12 01:40:26;;;;;;;98.18;8.68;;;;;;;2.63;77.34;98970.69;4969191;28;20054;-45
2023/11/12 01:42:52;;;;;;;59.25;7.30;;;;;;;2.60;76.61;98957.88;4968528;28;20065;-44
2023/11/12 01:45:19;;;;;;;37.10;6.13;;;;;;;2.59;77.27;98963.78;4961604;28;20050;-40
2023/11/12 01:47:47;;;;;;;21.65;6.03;;;;;;;2.59;76.98;98951.00;4966191;28;20484;-48
2023/11/12 01:50:15;;;;;;;29.92;6.60;;;;;;;2.59;77.05;98951.88;4964284;28;20051;-52
2023/11/12 01:52:45;;;;;;;21.00;6.97;;;;;;;2.61;76.84;98954.47;4964862;28;20094;-47
2023/11/12 01:55:13;;;;;;;51.00;7.32;;;;;;;2.60;76.67;98952.75;4966670;28;20058;-58
2023/11/12 01:57:42;;;;;;;64.22;6.85;;;;;;;2.59;76.82;98957.00;4968478;28;20051;-54
2023/11/12 02:00:11;;;;;;;35.78;6.18;;;;;;;2.57;77.35;98949.31;4966753;28;20479;-51
2023/11/12 02:02:39;;;;;;;29.60;5.40;;;;;;;2.56;77.53;98952.72;4964896;28;20074;-44
2023/11/12 02:05:06;;;;;;;45.22;5.70;;;;;;;2.54;76.23;98948.44;4965057;28;20089;-46
2023/11/12 02:07:36;;;;;;;41.33;5.45;;;;;;;2.53;76.76;98955.22;4968343;28;20105;-48
2023/11/12 02:10:09;;;;;;;30.80;5.85;;;;;;;2.50;76.82;98942.41;4967380;28;20054;-46
2023/11/12 02:12:37;;;;;;;47.78;5.65;;;;;;;2.50;76.05;98942.41;4961947;28;20059;-43
2023/11/12 02:15:05;;;;;;;30.98;5.18;;;;;;;2.48;76.94;98933.88;4964555;28;20144;-44
2023/11/12 02:17:32;;;;;;;50.80;5.65;;;;;;;2.50;77.54;98947.50;4960668;28;20050;-49
2023/11/12 02:20:04;;;;;;;41.55;4.50;;;;;;;2.50;76.35;98939.00;4964688;28;20058;-45
2023/11/12 02:22:33;;;;;;;23.02;4.80;;;;;;;2.50;76.57;98944.94;4962988;28;20437;-47
2023/11/12 02:25:02;;;;;;;48.78;5.32;;;;;;;2.50;77.04;98937.28;4965685;28;20059;-43
2023/11/12 02:27:29;;;;;;;34.30;4.22;;;;;;;2.50;77.17;98939.84;4966209;28;20109;-46
2023/11/12 02:29:56;;;;;;;59.25;4.68;;;;;;;2.47;77.20;98927.06;4965157;28;20054;-42
2023/11/12 02:32:30;;;;;;;45.50;4.90;;;;;;;2.44;76.26;98927.00;4969040;28;20046;-47
2023/11/12 02:34:57;;;;;;;37.30;4.60;;;;;;;2.42;76.58;98923.56;4969005;28;20415;-45
2023/11/12 02:37:25;;;;;;;47.58;5.43;;;;;;;2.39;77.12;98921.81;4962609;28;20046;-45
2023/11/12 02:39:52;;;;;;;85.90;5.32;;;;;;;2.37;76.58;98931.19;4954066;28;20054;-41
2023/11/12 02:42:20;;;;;;;55.75;4.35;;;;;;;2.29;75.52;98931.06;4965310;28;20578;-42
2023/11/12 02:44:46;;;;;;;14.02;4.35;;;;;;;2.26;75.68;98938.69;4976285;28;20062;-42
2023/11/12 02:47:13;;;;;;;25.40;4.07;;;;;;;2.26;76.91;98933.59;4958859;28;20386;-44
2023/11/12 02:52:19;;;;;;;31.33;5.65;;;;;;;2.29;75.72;98938.75;5037648;27;20937;-47
2023/11/12 02:54:46;;;;;;;55.78;6.25;;;;;;;2.29;76.76;98933.63;5026314;28;20426;-46
2023/11/12 02:57:13;;;;;;;49.38;5.63;;;;;;;2.28;76.28;98929.38;5022667;28;20050;-42
2023/11/12 02:59:39;;;;;;;47.95;5.72;;;;;;;2.26;75.49;98933.59;5022918;28;20045;-41
2023/11/12 03:02:06;;;;;;;72.13;6.53;;;;;;;2.25;76.20;98941.22;5020765;28;20103;-42
2023/11/12 03:04:33;;;;;;;32.08;5.35;;;;;;;2.24;75.55;98942.94;5024875;28;20049;-47
2023/11/12 03:07:00;;;;;;;63.47;6.28;;;;;;;2.24;76.76;98950.63;5020706;28;20045;-45
2023/11/12 03:09:28;;;;;;;52.80;5.97;;;;;;;2.23;76.33;98948.88;5024406;28;20455;-45
2023/11/12 03:11:55;;;;;;;37.88;5.03;;;;;;;2.24;76.25;98948.06;5024408;28;20041;-41
2023/11/12 03:14:22;;;;;;;39.03;5.90;;;;;;;2.25;76.34;98937.00;5018036;28;20053;-44
2023/11/12 03:16:49;;;;;;;42.50;5.78;;;;;;;2.25;76.09;98929.31;5018461;28;20049;-43
2023/11/12 03:19:15;;;;;;;25.17;6.03;;;;;;;2.27;77.33;98927.63;5020059;28;20069;-43
2023/11/12 03:21:49;;;;;;;40.53;5.35;;;;;;;2.28;77.08;98926.81;5023329;28;20100;-41
2023/11/12 03:24:15;;;;;;;34.63;6.00;;;;;;;2.28;76.61;98916.59;5010647;28;20096;-49
2023/11/12 03:26:42;;;;;;;14.60;5.32;;;;;;;2.27;76.48;98914.84;5019683;28;20096;-51
2023/11/12 03:29:08;;;;;;;32.03;5.35;;;;;;;2.25;77.07;98911.44;5022886;28;20074;-44
2023/11/12 03:31:35;;;;;;;22.90;4.25;;;;;;;2.21;76.41;98914.78;5026392;28;20046;-41
2023/11/12 03:34:02;;;;;;;15.55;4.20;;;;;;;2.18;76.81;98914.75;5021363;28;20046;-44
2023/11/12 03:36:29;;;;;;;28.75;4.28;;;;;;;2.15;75.70;98919.81;5016824;28;20057;-45
2023/11/12 03:38:56;;;;;;;19.30;4.07;;;;;;;2.15;75.97;98919.81;5019958;28;20045;-47
2023/11/12 03:41:23;;;;;;;92.18;6.70;;;;;;;2.12;76.05;98920.63;5019147;28;20033;-45
2023/11/12 03:43:50;;;;;;;56.70;6.03;;;;;;;2.11;75.41;98925.72;5011859;28;20771;-45
2023/11/12 03:46:16;;;;;;;70.75;5.25;;;;;;;2.12;76.81;98924.88;5013662;28;20057;-43
2023/11/12 03:48:43;;;;;;;49.90;5.53;;;;;;;2.13;76.10;98917.22;5014530;28;20044;-43
2023/11/12 03:51:10;;;;;;;31.33;5.22;;;;;;;2.16;76.50;98921.56;5021364;28;20045;-42
2023/11/12 03:53:37;;;;;;;26.45;4.70;;;;;;;2.18;76.23;98924.97;5013192;28;20738;-39
2023/11/12 03:56:05;;;;;;;28.45;3.78;;;;;;;2.19;76.63;98921.56;5013391;28;20149;-47
2023/11/12 03:58:32;;;;;;;41.55;5.25;;;;;;;2.22;76.66;98921.63;5017397;28;20046;-39
2023/11/12 04:00:59;;;;;;;56.28;6.28;;;;;;;2.22;76.59;98916.50;5013452;28;20548;-46
2023/11/12 04:03:27;;;;;;;67.72;5.05;;;;;;;2.25;77.06;98913.13;5008275;28;20049;-47
2023/11/12 04:05:54;;;;;;;57.10;4.72;;;;;;;2.26;75.85;98902.94;5004774;28;20557;-45
2023/11/12 04:08:21;;;;;;;80.28;6.47;;;;;;;2.27;76.95;98907.19;5003156;28;20057;-46
2023/11/12 04:10:48;;;;;;;88.95;5.90;;;;;;;2.27;77.01;98919.97;4996017;28;20043;-38
2023/11/12 04:13:16;;;;;;;33.35;4.57;;;;;;;2.27;76.72;98909.75;5001071;28;20511;-43
2023/11/12 04:15:43;;;;;;;72.93;5.97;;;;;;;2.29;75.79;98915.75;4995864;28;20736;-41
2023/11/12 04:18:09;;;;;;;34.95;5.22;;;;;;;2.29;76.68;98918.31;5004210;28;20053;-40
2023/11/12 04:20:36;;;;;;;66.65;5.68;;;;;;;2.31;75.69;98915.78;4999267;28;20129;-46
2023/11/12 04:23:03;;;;;;;61.38;5.10;;;;;;;2.33;76.48;98915.78;5002196;28;20065;-44
2023/11/12 04:25:30;;;;;;;67.20;5.30;;;;;;;2.34;76.87;98922.59;5001106;28;20042;-41
2023/11/12 04:27:56;;;;;;;51.65;5.47;;;;;;;2.35;75.87;98921.75;5005129;28;20045;-44
2023/11/12 04:30:23;;;;;;;50.67;4.95;;;;;;;2.33;75.70;98918.34;5006317;28;20046;-40
2023/11/12 04:32:50;;;;;;;32.72;4.90;;;;;;;2.32;75.58;98917.47;5000063;28;20077;-44
2023/11/12 04:35:19;;;;;;;48.92;5.03;;;;;;;2.30;76.58;98914.91;4998453;28;20046;-44
2023/11/12 04:37:45;;;;;;;30.08;4.03;;;;;;;2.28;76.15;98908.94;5000388;28;20069;-47
2023/11/12 04:40:16;;;;;;;62.17;4.78;;;;;;;2.27;75.63;98904.63;4996040;28;20049;-49
2023/11/12 04:42:43;;;;;;;;;;;;;;;2.23;77.13;98908.00;5005984;28;20100;-45
2023/11/12 04:45:11;;;;;;;57.55;4.93;;;;;;;2.25;76.53;98911.44;4994083;28;20029;-47
2023/11/12 04:47:37;;;;;;;43.15;4.45;;;;;;;2.24;76.31;98914.84;4997282;28;20046;-45
2023/11/12 04:50:05;;;;;;;33.08;4.65;;;;;;;2.24;76.12;98904.63;5000263;28;20136;-44
2023/11/12 04:52:31;;;;;;;57.72;4.70;;;;;;;2.22;75.56;98901.19;5004233;28;20041;-47
2023/11/12 04:54:58;;;;;;;28.13;4.10;;;;;;;2.18;76.82;98899.41;5005746;28;20069;-45
2023/11/12 04:57:25;;;;;;;24.13;4.45;;;;;;;2.15;76.19;98901.94;5002878;28;20050;-45
2023/11/12 04:59:52;;;;;;;14.77;4.30;;;;;;;2.13;76.23;98901.06;5007610;28;20178;-44
2023/11/12 05:02:18;;;;;;;16.67;4.00;;;;;;;2.11;75.86;98900.19;5002966;28;20042;-47
2023/11/12 05:04:45;;;;;;;14.60;4.00;;;;;;;2.08;76.88;98897.56;5007009;28;20104;-45
2023/11/12 05:07:12;;;;;;;30.92;4.60;;;;;;;2.05;76.36;98899.28;5004330;28;20050;-43
2023/11/12 05:09:38;;;;;;;11.00;5.30;;;;;;;2.04;75.45;98892.44;4999258;28;20050;-47
2023/11/12 05:12:06;;;;;;;26.45;4.22;;;;;;;2.00;75.62;98893.25;5008671;28;20069;-43
2023/11/12 05:14:33;;;;;;;21.02;4.72;;;;;;;1.99;75.77;98890.66;4998510;28;20077;-44
2023/11/12 05:16:59;;;;;;;28.13;6.30;;;;;;;1.95;76.11;98882.09;4983814;28;20056;-46
2023/11/12 05:19:26;;;;;;;19.90;4.10;;;;;;;1.93;76.34;98884.63;4981922;28;20042;-43
2023/11/12 05:21:53;;;;;;;20.58;5.95;;;;;;;1.94;76.37;98885.50;4986126;28;20101;-39
2023/11/12 05:24:19;;;;;;;14.70;4.43;;;;;;;1.93;75.70;98889.72;4974928;28;20121;-46
2023/11/12 05:26:46;;;;;;;12.85;4.20;;;;;;;1.92;76.96;98893.13;4979386;28;20046;-43
2023/11/12 05:29:13;;;;;;;34.80;5.03;;;;;;;1.91;76.49;98886.31;4984757;28;20138;-43
2023/11/12 05:31:39;;;;;;;15.13;4.28;;;;;;;1.92;76.88;98888.03;4972545;28;20125;-43
2023/11/12 05:34:06;;;;;;;23.60;4.60;;;;;;;1.93;76.64;98888.91;4979535;28;20522;-43
2023/11/12 05:36:33;;;;;;;29.40;4.70;;;;;;;1.93;76.13;98891.44;4980588;28;20069;-43
2023/11/12 05:38:59;;;;;;;19.15;4.53;;;;;;;1.93;75.94;98894.00;4980728;28;20047;-39
2023/11/12 05:41:26;;;;;;;36.40;4.93;;;;;;;1.93;75.81;98883.78;4979046;28;20055;-46
2023/11/12 05:43:53;;;;;;;27.90;5.15;;;;;;;1.92;76.69;98889.72;4981997;28;20062;-42
2023/11/12 05:46:19;;;;;;;31.52;4.95;;;;;;;1.91;75.93;98891.41;4994686;28;20080;-43
2023/11/12 05:48:46;;;;;;;57.20;5.40;;;;;;;1.93;76.14;98899.09;4997988;28;20045;-46
2023/11/12 05:51:13;;;;;;;23.98;4.97;;;;;;;1.95;76.56;98907.63;5003221;28;20505;-40
2023/11/12 05:53:39;;;;;;;50.13;6.03;;;;;;;1.96;76.32;98904.22;4997869;28;20046;-46
2023/11/12 05:56:06;;;;;;;16.48;5.53;;;;;;;1.97;76.54;98900.88;4996676;28;20053;-40
2023/11/12 05:58:33;;;;;;;61.72;6.18;;;;;;;1.99;76.34;98911.94;4996332;28;20065;-40
2023/11/12 06:01:00;;;;;;;75.60;7.13;;;;;;;1.99;76.25;98904.28;4999242;28;20511;-42
2023/11/12 06:03:26;;;;;;;59.25;6.07;;;;;;;1.99;76.86;98913.66;5001684;28;20049;-44
2023/11/12 06:05:53;;;;;;;44.63;5.65;;;;;;;2.00;76.37;98910.25;5001977;28;20100;-45
2023/11/12 06:08:20;;;;;;;56.10;5.47;;;;;;;2.01;76.95;98907.72;5004540;28;20404;-46
2023/11/12 06:10:48;;;;;;;37.85;5.32;;;;;;;2.01;76.65;98912.84;5001616;28;20500;-45
2023/11/12 06:13:15;;;;;;;27.30;6.03;;;;;;;2.02;76.83;98914.53;5001705;28;20054;-50
2023/11/12 06:15:42;;;;;;;32.92;5.43;;;;;;;2.04;76.02;98918.00;4996063;28;20045;-42
2023/11/12 06:18:09;;;;;;;33.28;5.78;;;;;;;2.07;76.62;98911.19;4997042;28;20050;-51
2023/11/12 06:20:36;;;;;;;13.23;4.93;;;;;;;2.10;76.84;98911.25;5003010;28;20046;-48
2023/11/12 06:23:03;;;;;;;39.20;5.57;;;;;;;2.12;75.62;98917.22;4996125;28;20554;-44
2023/11/12 06:25:30;;;;;;;39.22;5.18;;;;;;;2.13;75.89;98908.72;5002453;28;20057;-41
2023/11/12 06:27:56;;;;;;;21.50;4.97;;;;;;;2.15;75.95;98904.47;5001039;28;20041;-50
2023/11/12 06:30:23;;;;;;;27.15;5.10;;;;;;;2.15;76.57;98904.47;5002128;28;20503;-44
2023/11/12 06:32:51;;;;;;;27.83;5.03;;;;;;;2.15;75.97;98904.47;5001438;28;20049;-41
2023/11/12 06:35:18;;;;;;;30.65;4.75;;;;;;;2.14;77.20;98900.22;5000499;28;20116;-39
2023/11/12 06:37:45;;;;;;;39.15;6.05;;;;;;;2.13;76.37;98895.97;5000562;28;20145;-46
2023/11/12 06:40:12;;;;;;;40.90;5.78;;;;;;;2.14;75.85;98890.00;4999428;28;20050;-42
2023/11/12 06:42:41;;;;;;;41.92;5.88;;;;;;;2.12;77.20;98889.97;5001797;28;20420;-46
2023/11/12 06:45:09;;;;;;;75.45;5.90;;;;;;;2.13;77.08;98889.13;4998960;28;20074;-50
2023/11/12 06:47:35;;;;;;;34.90;5.50;;;;;;;2.12;75.57;98889.13;4996038;28;20053;-45
2023/11/12 06:50:03;;;;;;;100.00;7.13;;;;;;;2.11;76.82;98889.97;4996402;28;20062;-41
2023/11/12 06:52:30;;;;;;;74.60;7.95;;;;;;;2.12;76.46;98894.22;4991608;28;20046;-46
2023/11/12 06:54:59;;;;;;;63.80;6.35;;;;;;;2.13;77.13;98890.84;4998286;28;20700;-50
2023/11/12 06:57:26;;;;;;;56.28;6.75;;;;;;;2.13;76.45;98890.84;4997206;28;20046;-43
2023/11/12 06:59:53;;;;;;;73.80;6.18;;;;;;;2.16;77.20;98890.91;4998735;28;20056;-44
2023/11/12 07:02:20;;;;;;;90.30;6.80;;;;;;;2.15;77.30;98892.56;4994947;28;20793;-45
2023/11/12 07:04:48;;;;;;;45.35;5.43;;;;;;;2.13;75.85;98894.25;4995257;28;20045;-48
2023/11/12 07:07:14;;;;;;;63.60;6.47;;;;;;;2.11;77.07;98892.50;5001778;28;20146;-44
2023/11/12 07:09:44;;;;;;;17.95;5.25;;;;;;;2.12;76.98;98892.53;5001775;28;20141;-47
2023/11/12 07:12:11;;;;;;;71.00;7.25;;;;;;;2.12;76.40;98896.78;4997865;28;20050;-46
2023/11/12 07:14:39;;;;;;;85.63;7.13;;;;;;;2.12;76.20;98896.78;5000451;28;20046;-45
2023/11/12 07:17:06;;;;;;;57.45;6.43;;;;;;;2.13;76.91;98901.06;4999534;28;20041;-43
2023/11/12 07:19:33;;;;;;;50.95;5.88;;;;;;;2.14;77.25;98908.75;5003045;28;20048;-44
2023/11/12 07:22:00;;;;;;;86.70;7.43;;;;;;;2.15;76.16;98907.03;4998591;28;20038;-48
2023/11/12 07:24:27;;;;;;;76.90;6.78;;;;;;;2.16;76.69;98908.78;5001679;28;20045;-46
2023/11/12 07:26:53;;;;;;;88.72;6.53;;;;;;;2.16;76.77;98917.28;5002902;28;20131;-45
2023/11/12 07:29:21;;;;;;;82.47;6.55;;;;;;;2.16;76.46;98919.84;4995157;28;20707;-46
2023/11/12 07:31:48;;;;;;;43.90;5.80;;;;;;;2.19;77.52;98921.56;4995990;28;20049;-42
2023/11/12 07:34:14;;;;;;;39.13;5.53;;;;;;;2.21;77.44;98929.25;5001678;28;20050;-45
2023/11/12 07:36:41;;;;;;;52.47;6.88;;;;;;;2.23;77.10;98937.81;4999362;28;20056;-44
2023/11/12 07:39:08;;;;;;;36.88;6.00;;;;;;;2.26;77.16;98938.69;5002621;28;20054;-45
2023/11/12 07:41:35;;;;;;;22.77;6.35;;;;;;;2.31;76.83;98951.53;5004816;28;20046;-41
2023/11/12 07:44:02;;;;;;;40.63;6.15;;;;;;;2.35;76.21;98949.88;5002061;28;20080;-43
2023/11/12 07:46:29;;;;;;;45.88;5.65;;;;;;;2.38;76.15;98962.69;5001321;28;20113;-47
2023/11/12 07:48:55;;;;;;;42.67;7.45;;;;;;;2.41;76.65;98957.63;4993846;28;20042;-52
2023/11/12 07:51:22;;;;;;;53.20;6.43;;;;;;;2.43;76.26;98955.94;5009320;28;20483;-45
2023/11/12 07:53:50;;;;;;;50.47;6.50;;;;;;;2.46;76.95;98955.97;5004534;28;20046;-45
2023/11/12 07:56:17;;;;;;;62.55;8.32;;;;;;;2.49;76.50;98953.47;5005531;28;20054;-48
2023/11/12 07:58:44;;;;;;;66.72;6.18;;;;;;;2.52;77.30;98960.31;5005498;28;20196;-44
2023/11/12 08:01:11;;;;;;;41.50;6.18;;;;;;;2.55;77.02;98957.81;5006105;28;20057;-47
2023/11/12 08:03:38;;;;;;;48.05;6.35;;;;;;;2.57;77.04;98951.88;5000756;28;20062;-43
2023/11/12 08:06:08;;;;;;;17.38;5.07;;;;;;;2.61;76.54;98962.13;4998015;28;20053;-48
2023/11/12 08:08:35;;;;;;;22.27;5.55;;;;;;;2.64;76.22;98970.69;5005001;28;20057;-46
2023/11/12 08:11:01;;;;;;;15.07;5.28;;;;;;;2.67;76.64;98972.44;4997578;28;20473;-41
2023/11/12 08:13:28;;;;;;;13.90;5.35;;;;;;;2.72;76.87;98978.47;5001210;28;20050;-51
2023/11/12 08:15:55;;;;;;;13.93;6.10;;;;;;;2.77;76.91;98975.97;5001734;28;20129;-47
2023/11/12 08:18:21;;;;;;;14.27;5.78;;;;;;;2.81;76.34;98973.44;5002232;28;20042;-47
2023/11/12 08:20:48;;;;;;;11.90;5.35;;;;;;;2.88;76.70;98970.97;4984535;28;20112;-44
2023/11/12 08:23:16;;;;;;;14.02;5.63;;;;;;;2.96;76.50;98971.91;4987200;28;20486;-44
2023/11/12 08:25:43;;;;;;;13.77;5.43;;;;;;;3.03;76.28;98978.81;4972070;28;20062;-46
2023/11/12 08:28:12;;;;;;;12.32;5.72;;;;;;;3.13;76.66;98976.34;4973065;28;20567;-41
2023/11/12 08:30:39;;;;;;;19.17;5.35;;;;;;;3.24;77.44;98982.41;4985520;28;20046;-45
2023/11/12 08:33:06;;;;;;;12.48;5.90;;;;;;;3.31;77.25;98973.97;4989985;28;20488;-46
2023/11/12 08:35:33;;;;;;;11.90;5.38;;;;;;;3.38;77.12;98979.16;4995683;28;20081;-48
2023/11/12 08:37:59;;;;;;;11.32;5.10;;;;;;;3.43;76.55;98974.91;4989463;28;20061;-46
2023/11/12 08:40:26;;;;;;;12.77;5.13;;;;;;;3.52;77.26;98981.84;4994650;28;20073;-47
2023/11/12 08:42:53;;;;;;;14.18;5.65;;;;;;;3.55;77.45;98987.81;4986778;28;20715;-43
2023/11/12 08:45:20;;;;;;;13.35;6.15;;;;;;;3.55;76.53;98987.81;4978376;28;20412;-49
2023/11/12 08:47:47;;;;;;;14.40;6.30;;;;;;;3.56;76.89;98996.38;4980056;28;20150;-44
2023/11/12 08:50:13;;;;;;;16.50;6.68;;;;;;;3.58;77.40;98992.13;4980295;28;20045;-47
2023/11/12 08:52:40;;;;;;;18.00;6.18;;;;;;;3.60;76.68;99005.78;4983705;28;20058;-45
2023/11/12 08:55:07;;;;;;;12.57;5.90;;;;;;;3.60;77.00;99009.22;4975188;28;20051;-50
2023/11/12 08:57:35;;;;;;;16.25;6.13;;;;;;;3.63;77.11;99012.63;4980673;28;20042;-49
2023/11/12 09:00:06;;;;;;;14.73;5.45;;;;;;;3.64;76.86;99010.09;4977756;28;20050;-45
2023/11/12 09:02:33;;;;;;;13.40;5.75;;;;;;;3.65;77.20;99008.41;4992003;28;20046;-44
2023/11/12 09:05:01;;;;;;;12.70;5.13;;;;;;;3.67;77.16;99006.69;4991090;28;20065;-43
2023/11/12 09:07:28;;;;;;;14.13;5.97;;;;;;;3.68;77.33;99003.31;4989882;28;20046;-47
2023/11/12 09:09:55;;;;;;;13.90;6.10;;;;;;;3.71;77.17;99018.69;4992894;28;20053;-50
2023/11/12 09:12:22;;;;;;;14.98;7.97;;;;;;;3.75;77.82;99014.47;4993501;28;20576;-50
2023/11/12 09:14:50;;;;;;;15.27;5.88;;;;;;;3.78;77.03;99020.44;4994049;28;20054;-44
2023/11/12 09:17:16;;;;;;;16.30;5.88;;;;;;;3.81;77.06;99025.59;4989073;28;20042;-40
2023/11/12 09:19:43;;;;;;;15.63;6.18;;;;;;;3.84;77.29;99025.63;4993699;28;20050;-46
2023/11/12 09:22:10;;;;;;;15.60;5.85;;;;;;;3.88;77.33;99015.44;4989547;28;20092;-42
2023/11/12 09:24:37;;;;;;;11.93;5.72;;;;;;;3.90;77.34;99016.28;4990840;28;20053;-45
2023/11/12 09:27:21;;;;;;;13.10;5.25;;;;;;;3.90;77.47;99019.72;4997278;28;20049;-47
2023/11/12 09:29:48;;;;;;;15.63;5.68;;;;;;;3.92;77.54;99023.13;4994784;28;20502;-41
2023/11/12 09:32:15;;;;;;;16.23;6.63;;;;;;;3.95;77.77;99030.84;4991491;28;20420;-45
2023/11/12 09:34:42;;;;;;;14.52;5.88;;;;;;;3.97;77.57;99028.28;4989559;28;20476;-48
2023/11/12 09:37:09;;;;;;;14.25;5.88;;;;;;;4.00;76.95;99030.88;4993357;28;20054;-45
2023/11/12 09:39:36;;;;;;;17.40;6.18;;;;;;;4.03;77.74;99033.47;4992881;28;20052;-51
2023/11/12 09:42:03;;;;;;;16.55;6.50;;;;;;;4.08;77.76;99042.03;4990267;28;20042;-48
2023/11/12 09:44:32;;;;;;;12.45;5.85;;;;;;;4.11;78.14;99039.50;4991069;28;20492;-47
2023/11/12 09:47:15;;;;;;;16.77;5.57;;;;;;;4.13;77.62;99036.09;4991135;28;20496;-42
2023/11/12 09:49:42;;;;;;;14.95;5.55;;;;;;;4.15;77.87;99039.53;4988256;28;20050;-46
2023/11/12 09:52:10;;;;;;;16.27;5.72;;;;;;;4.17;77.67;99037.81;4992330;28;20051;-45
2023/11/12 09:54:39;;;;;;;13.85;6.32;;;;;;;4.19;77.58;99044.69;4996900;28;20125;-49
2023/11/12 09:57:06;;;;;;;13.00;6.28;;;;;;;4.22;78.42;99046.44;5000548;28;20056;-47
2023/11/12 09:59:36;;;;;;;19.63;5.82;;;;;;;4.24;78.34;99029.34;4988068;28;20138;-46
2023/11/12 10:02:06;;;;;;;13.45;6.15;;;;;;;4.26;78.37;99030.22;4994610;28;20154;-45
2023/11/12 10:04:33;;;;;;;17.60;6.05;;;;;;;4.29;78.11;99031.94;4985993;28;20050;-42
2023/11/12 10:07:01;;;;;;;18.00;6.07;;;;;;;4.32;78.42;99027.69;4989871;28;20053;-39
2023/11/12 10:09:31;;;;;;;15.60;5.97;;;;;;;4.38;78.21;99029.41;4996293;28;20050;-48
2023/11/12 10:12:06;;;;;;;16.38;7.10;;;;;;;4.43;78.74;99024.34;4995130;28;20140;-44
2023/11/12 10:14:33;;;;;;;19.45;6.78;;;;;;;4.46;78.17;99025.19;4993003;28;20057;-44
2023/11/12 10:17:11;;;;;;;12.25;5.53;;;;;;;4.53;78.72;99027.81;4992669;28;20050;-44
2023/11/12 10:19:56;;;;;;;15.57;6.15;;;;;;;4.57;78.68;99022.72;4999910;28;20467;-44
2023/11/12 10:22:39;;;;;;;13.18;5.10;;;;;;;4.62;78.79;99026.16;4992358;28;20068;-48
2023/11/12 10:25:06;;;;;;;15.35;5.75;;;;;;;4.67;77.93;99033.00;4988662;28;20202;-46
2023/11/12 10:27:33;;;;;;;13.13;5.25;;;;;;;4.71;78.35;99024.47;4987486;28;20096;-47
2023/11/12 10:30:17;;;;;;;19.60;7.60;;;;;;;4.75;77.90;99018.50;4992798;28;20058;-44
2023/11/12 10:32:48;;;;;;;14.85;5.57;;;;;;;4.80;78.58;99018.53;4999258;28;20050;-45
2023/11/12 10:35:26;;;;;;;22.75;5.80;;;;;;;4.83;77.84;99016.81;4991257;28;20124;-49
2023/11/12 10:37:56;;;;;;;11.38;5.28;;;;;;;4.86;78.40;99024.53;4989231;28;20507;-43
2023/11/12 10:40:24;;;;;;;15.02;5.38;;;;;;;4.89;78.04;99009.16;4989993;28;20042;-51
2023/11/12 10:42:58;;;;;;;14.85;5.20;;;;;;;4.94;78.09;99021.16;4988825;28;20057;-43
2023/11/12 10:45:25;;;;;;;14.23;5.43;;;;;;;4.97;78.19;99018.59;4989436;28;20053;-41
2023/11/12 10:47:55;;;;;;;13.82;5.53;;;;;;;5.00;78.27;99016.03;4997221;28;20042;-43
2023/11/12 10:50:25;;;;;;;15.25;5.60;;;;;;;5.03;78.38;99010.91;4990211;28;20046;-41
2023/11/12 10:52:53;;;;;;;14.85;5.65;;;;;;;5.07;77.85;99002.34;4994536;28;20045;-46
2023/11/12 10:55:22;;;;;;;17.35;6.07;;;;;;;5.11;78.97;98995.53;4991183;28;20416;-42
2023/11/12 10:57:50;;;;;;;11.68;4.75;;;;;;;5.13;78.63;98989.53;4984426;28;20076;-42
2023/11/12 11:00:19;;;;;;;12.30;5.18;;;;;;;5.19;79.87;98990.41;4986142;28;20559;-48
2023/11/12 11:02:48;;;;;;;15.68;5.30;;;;;;;5.26;79.71;98995.56;4991875;28;20046;-46
2023/11/12 11:05:16;;;;;;;15.93;6.18;;;;;;;5.32;79.64;98997.28;4989465;28;20069;-48
2023/11/12 11:07:47;;;;;;;13.63;5.03;;;;;;;5.38;78.68;98992.16;5002711;28;20045;-40
2023/11/12 11:10:16;;;;;;;11.52;4.18;;;;;;;5.43;79.03;98993.91;4995534;28;20054;-48
2023/11/12 11:12:43;;;;;;;12.65;3.97;;;;;;;5.43;79.78;98991.31;4987534;28;20061;-48
2023/11/12 11:18:49;;;;;;;10.40;4.93;;;;;;;5.49;80.17;98987.03;5033862;28;20436;-40
2023/11/12 11:21:16;;;;;;;15.65;5.85;;;;;;;5.52;80.91;98989.63;4986186;28;20058;-44
2023/11/12 11:26:32;;;;;;;15.10;6.07;;;;;;;5.61;80.21;98981.03;5013263;27;20411;-47
2023/11/12 11:34:41;;;;;;;18.23;6.82;;;;;;;5.94;80.19;98967.34;5058663;27;20401;-48
2023/11/12 11:37:08;;;;;;;14.63;4.93;;;;;;;5.96;80.13;98963.91;5029646;28;20089;-43
2023/11/12 11:39:36;;;;;;;14.77;6.85;;;;;;;5.97;80.67;98963.03;5028526;28;20536;-46
2023/11/12 11:44:42;;;;;;;12.43;4.80;;;;;;;6.02;80.23;98969.03;5000304;28;20403;-41
2023/11/12 11:47:26;;;;;;;12.20;5.28;;;;;;;6.08;80.38;98965.63;4992941;28;20049;-50
2023/11/12 11:52:32;;;;;;;11.95;4.35;;;;;;;6.15;81.91;98958.78;5065963;27;20838;-43
2023/11/12 11:55:12;;;;;;;14.93;6.90;;;;;;;6.21;81.22;98947.63;5032663;28;20048;-46
2023/11/12 11:57:46;;;;;;;11.35;8.05;;;;;;;6.25;80.52;98946.75;5028984;28;20045;-46